• Join FlightAware (Why Join?)
  • Login
  • US Flag 
01:08AM EDT


 

Airport Tracker/Info


-or-


 

Live Flight TrackerFlight Track Log ✈ RPA3253 ✈ 02-Aug-2013 ✈ KCLT - KMSY

Flight Track Log - Related Links

Times and Time Zones

All times are in EDT time to prevent confusion due to time zone crossing. See the RPA3253 flight status page for this flight to view local times or setup timezone preferences in your user account.

Time Position Orientation Groundspeed Altitude Reporting Facility
EDT Latitude Longitude Course Direction KTS MPH feet Rate Location/Type
10:41PM 35.1911 -80.9508 251° West 166 191 1,500  Level Atlanta Center
10:41PM 35.1517 -80.9525 182° South 174 200 2,400 1,260 Climbing Atlanta Center
10:42PM 35.1300 -81.0014 242° Southwest 256 295 3,600 2,040 Climbing Atlanta Center
10:43PM 35.2667 -81.1784 270° West  Level FlightAware Approximate
10:43PM 35.1217 -81.0906 264° West 277 319 6,000  Level Atlanta Center
10:44PM 35.1976 -81.2463 199° South  Level FlightAware Approximate
10:44PM 35.1131 -81.1697 262° West 275 316 8,000  Level Atlanta Center
10:45PM 35.0970 -81.2799 192° South  Level FlightAware Approximate
10:45PM 35.0922 -81.2642 255° West 310 357 10,300  Level Atlanta Center
10:46PM 35.0535 -81.3877 251° West  Level FlightAware Approximate
10:46PM 35.0653 -81.3642 252° West 303 349 11,700  Level Atlanta Center
10:47PM 35.0342 -81.4667 250° West 316 364 13,500 1,920 Climbing Atlanta Center
10:48PM 35.0028 -81.5742 250° West 331 381 15,600 1,980 Climbing Atlanta Center
10:49PM 34.9697 -81.6842 250° West 339 390 17,500 1,800 Climbing Atlanta Center
10:50PM 34.9281 -81.8094 248° West 353 406 19,300 1,800 Climbing Atlanta Center
10:51PM 34.8736 -81.9122 237° Southwest 367 422 21,100 1,680 Climbing Atlanta Center
10:52PM 34.8147 -82.0122 234° Southwest 372 428 22,700 1,500 Climbing Atlanta Center
10:53PM 34.7539 -82.1175 235° Southwest 377 434 24,100 1,200 Climbing Atlanta Center
10:54PM 34.6931 -82.2300 237° Southwest 389 448 25,200 900 Climbing Atlanta Center
10:55PM 34.6319 -82.3372 235° Southwest 394 453 26,000 360 Climbing Atlanta Center
10:56PM 34.5667 -82.4497 235° Southwest 406 467 26,000  Level Atlanta Center
10:57PM 34.5033 -82.5567 234° Southwest 406 467 26,000  Level Atlanta Center
10:58PM 34.4378 -82.6686 235° Southwest 406 467 26,000  Level Atlanta Center
10:59PM 34.3742 -82.7778 235° Southwest 406 467 26,000  Level Atlanta Center
11:00PM 34.3147 -82.8769 234° Southwest 406 467 26,000  Level Atlanta Center
11:01PM 34.2531 -82.9858 236° Southwest 400 460 26,000  Level Atlanta Center
11:02PM 34.1914 -83.0969 236° Southwest 400 460 26,000  Level Atlanta Center
11:03PM 34.1275 -83.2031 234° Southwest 405 466 26,000  Level Atlanta Center
11:04PM 34.0633 -83.3142 235° Southwest 405 466 26,000  Level Atlanta Center
11:05PM 33.9994 -83.4225 235° Southwest 405 466 26,000  Level Atlanta Center
11:06PM 33.9289 -83.5406 234° Southwest 405 466 26,000  Level Atlanta Center
11:07PM 33.8625 -83.6536 235° Southwest 405 466 26,000  Level Atlanta Center
11:08PM 33.7981 -83.7614 234° Southwest 405 466 26,000  Level Atlanta Center
11:09PM 33.7314 -83.8714 234° Southwest 405 466 26,000  Level Atlanta Center
11:10PM 33.6669 -83.9814 235° Southwest 405 466 26,000  Level Atlanta Center
11:11PM 33.6000 -84.0936 234° Southwest 411 473 26,000  Level Atlanta Center
11:12PM 33.5333 -84.2033 234° Southwest 411 473 26,000  Level Atlanta Center
11:13PM 33.4747 -84.3028 235° Southwest 411 473 26,000  Level Atlanta Center
11:14PM 33.4075 -84.4147 234° Southwest 411 473 26,000  Level Atlanta Center
11:15PM 33.3403 -84.5261 234° Southwest 411 473 26,000  Level Atlanta Center
11:16PM 33.2731 -84.6350 234° Southwest 411 473 26,000  Level Atlanta Center
11:17PM 33.2056 -84.7489 235° Southwest 411 473 26,000  Level Atlanta Center
11:18PM 33.1319 -84.8697 234° Southwest 416 479 26,000  Level Atlanta Center
11:19PM 33.0664 -84.9833 235° Southwest 421 484 26,000  Level Atlanta Center
11:20PM 32.9967 -85.0914 232° Southwest 421 484 26,000  Level Atlanta Center
11:21PM 32.9353 -85.1847 232° Southwest 415 478 26,000  Level Atlanta Center
11:22PM 32.8653 -85.2950 233° Southwest 415 478 26,000  Level Atlanta Center
11:23PM 32.7953 -85.4028 232° Southwest 415 478 26,000  Level Atlanta Center
11:24PM 32.7292 -85.5156 235° Southwest 415 478 26,000  Level Atlanta Center
11:25PM 32.6589 -85.6253 233° Southwest 415 478 26,000  Level Atlanta Center
11:26PM 32.5908 -85.7375 234° Southwest 420 483 26,000  Level Atlanta Center
11:27PM 32.5225 -85.8469 233° Southwest 420 483 26,000  Level Atlanta Center
11:28PM 32.4433 -85.9686 232° Southwest 429 494 26,000  Level Atlanta Center
11:29PM 32.3725 -86.0800 233° Southwest 429 494 26,000  Level Atlanta Center
11:30PM 32.3019 -86.1889 233° Southwest 429 494 26,000  Level Atlanta Center
11:31PM 32.2353 -86.2978 234° Southwest 430 495 26,000  Level Atlanta Center
11:32PM 32.1750 -86.3897 232° Southwest 430 495 26,000  Level Atlanta Center
11:33PM 32.0978 -86.5028 231° Southwest 425 489 26,000  Level Atlanta Center
11:34PM 32.0206 -86.6083 229° Southwest 425 489 26,000  Level Atlanta Center
11:35PM 31.9325 -86.7233 228° Southwest 425 489 26,000  Level Atlanta Center
11:36PM 31.8592 -86.8289 231° Southwest 430 495 26,000  Level Atlanta Center
11:37PM 31.7817 -86.9339 229° Southwest 430 495 26,000  Level Atlanta Center
11:38PM 31.7061 -87.0389 230° Southwest 430 495 26,000  Level Atlanta Center
11:39PM 31.6389 -87.1342 230° Southwest 430 495 26,000  Level Atlanta Center
11:41PM 31.5294 -87.2764 228° Southwest 430 495 26,000  Level Houston Center
11:42PM 31.4525 -87.3806 229° Southwest 424 488 26,000  Level Houston Center
11:43PM 31.3742 -87.4869 229° Southwest 431 496 26,000  Level Houston Center
11:44PM 31.2975 -87.5925 230° Southwest 426 490 26,000  Level Houston Center
11:45PM 31.2100 -87.7094 229° Southwest 432 497 26,000  Level Houston Center
11:46PM 31.1328 -87.8153 230° Southwest 430 495 26,000  Level Houston Center
11:47PM 31.0544 -87.9206 229° Southwest 430 495 26,000  Level Houston Center
11:48PM 30.9756 -88.0244 228° Southwest 429 494 26,000  Level Houston Center
11:49PM 30.8950 -88.1297 228° Southwest 435 501 26,000  Level Houston Center
11:50PM 30.8158 -88.2358 229° Southwest 434 499 26,000  Level Houston Center
11:51PM 30.7381 -88.3408 229° Southwest 429 494 26,000  Level Houston Center
11:52PM 30.6817 -88.4567 241° Southwest 428 493 26,000  Level Houston Center
11:53PM 30.6264 -88.5806 243° Southwest 430 495 26,000  Level Houston Center
11:54PM 30.5606 -88.7278 243° Southwest 428 493 26,000  Level Houston Center
11:55PM 30.5058 -88.8503 243° Southwest 427 491 26,000 -480 Level Houston Center
11:56PM 30.4606 -88.9522 243° Southwest 429 494 25,100 -1,740 Descending Houston Center
11:57PM 30.3989 -89.0950 243° Southwest 414 476 22,500 -2,340 Descending Houston Center
11:58PM 30.3553 -89.2111 247° West 397 457 20,400 -2,160 Descending Houston Center
11:59PM 30.3142 -89.3250 247° West 385 443 18,200 -2,040 Descending Houston Center
12:00AM 30.2739 -89.4356 247° West 374 430 16,400 -1,860 Descending Houston Center
12:00AM 30.2461 -89.5114 247° West 367 422 15,100 -2,040 Descending Houston Center
12:01AM 30.2081 -89.6167 247° West 353 406 13,000 -2,040 Descending Houston Center
12:03AM 30.1678 -89.7194 246° West 349 402 11,100 -1,320 Descending Houston Center
12:04AM 30.1292 -89.8103 244° Southwest 310 357 10,400 -1,560 Descending Houston Center
12:05AM 30.0858 -89.8939 239° Southwest 293 337 8,000 -2,040 Descending Houston Center
12:05AM 30.0528 -89.9697 243° Southwest 292 336 6,500 -1,440 Descending Houston Center
12:06AM 30.0661 -90.0606 280° West 279 321 5,300 -720 Descending Houston Center
12:08AM 30.0794 -90.1464 280° West 197 227 5,000 -180 Descending Houston Center
12:09AM 30.0897 -90.2156 280° West 186 214 5,000  Level Houston Center
12:10AM 30.1000 -90.2831 280° West 194 223 5,000 -300 Level Houston Center
12:11AM 30.1061 -90.3375 277° West 193 222 4,500 -840 Descending Houston Center
12:12AM 30.1142 -90.3975 279° West 189 217 3,400 -960 Descending Houston Center
12:13AM 30.0711 -90.4278 211° Southwest 185 213 2,600 -600 Descending Houston Center
12:14AM 30.0319 -90.4214 172° South 189 217 2,200 -600 Descending Houston Center
12:15AM 30.0175 -90.3772 111° Southeast 166 191 1,500 -780 Descending Houston Center
12:16AM 30.0100 -90.3389 103° East 148 170 900 -720 Descending Houston Center
12:17AM 29.9981 -90.2939 107° East 137 158 200 -720 Descending Houston Center